Latest Coastal Weather Observations for Double Island Point

IDQ60701

Issued at 7:52 am EST Tuesday 27 October 2020 (issued every 10 minutes, with the page automatically refreshed every 10 minutes)

About coastal observations | Map of coastal stations | Coastal observations for QLD | Marine services | Other Formats
Station Details ID: 040068 Name: DOUBLE ISLAND POINT LIGHTHOUSE Lat: -25.93 Lon: 153.19 Height: 95.64 m
Data from the previous 72 hours. | See also: Recent months at Double Island Point
Date/Time
EST
Wind Sea
Height
m
Swell Vis
km
Cloud Weather Temp
°C
Press
MSL
hPa
Rain since
9am
mm
Dir  Spd
kts
Gust
kts
Height
m
Period
s
Dir
27/07:30am E 8 10 - - - - - - - 23.0 1014.5 0.0
27/07:00am ESE 9 10 - - - - - - - 22.7 1014.0 0.0
27/06:30am SE 10 12 - - - - - - - 22.7 1013.7 0.0
27/06:00am ESE 8 9 - - - - - - - 22.5 1013.5 0.0
27/05:30am S 5 7 - - - - - - - 22.4 1013.4 0.0
27/05:00am S 8 9 - - - - - - - 22.0 1012.7 0.0
27/04:30am S 7 8 - - - - - - - 22.0 1012.5 0.0
27/04:00am WNW 7 7 - - - - - - - 22.0 1012.2 0.0
27/03:30am WNW 5 6 - - - - - - - 22.0 1012.0 0.0
27/03:00am WNW 5 5 - - - - - - - 22.2 1011.9 0.0
27/02:30am WNW 1 4 - - - - - - - 22.4 1011.7 0.0
27/02:00am WNW 3 5 - - - - - - - 22.8 1011.9 0.0
27/01:30am WNW 4 6 - - - - - - - 22.7 1012.1 0.0
27/01:00am WNW 6 8 - - - - - - - 22.7 1012.3 0.0
27/12:30am WNW 7 9 - - - - - - - 22.7 1012.4 0.0
27/12:00am WNW 9 11 - - - - - - - 22.6 1012.4 0.0
 
Date/Time
EST
Wind Sea
Height
m
Swell Vis
km
Cloud Weather Temp
°C
Press
MSL
hPa
Rain since
9am
mm
Dir  Spd
kts
Gust
kts
Height
m
Period
s
Dir
26/11:30pm WNW 8 10 - - - - - - - 22.7 1012.7 0.0
26/11:00pm WNW 10 11 - - - - - - - 22.7 1012.7 0.0
26/10:30pm NW 8 9 - - - - - - - 22.8 1012.9 0.0
26/10:00pm NW 13 16 - - - - - - - 23.0 1013.0 0.0
26/09:30pm WNW 11 14 - - - - - - - 23.0 1013.0 0.0
26/09:00pm WNW 6 9 - - - - - - - 23.1 1012.7 0.0
26/08:30pm NW 14 17 - - - - - - - 23.3 1012.3 0.0
26/08:00pm NW 15 19 - - - - - - - 23.5 1012.0 0.0
26/07:30pm NW 13 16 - - - - - - - 23.6 1012.0 0.0
26/07:00pm NW 12 15 - - - - - - - 23.6 1011.2 0.0
26/06:30pm NNW 5 9 - - - - - - - 23.7 1010.8 0.0
26/06:00pm CALM 0 3 - - - - - - - 24.7 1010.2 0.0
26/05:30pm N 5 6 - - - - - - - 25.0 1009.6 0.0
26/05:00pm NE 3 5 - - - - - - - 25.8 1009.1 0.0
26/04:30pm ENE 3 5 - - - - - - - 26.3 1008.8 0.0
26/04:00pm N 5 10 - - - - - - - 27.3 1008.6 0.0
26/03:30pm ENE 3 5 - - - - - - - 28.0 1008.4 0.0
26/03:00pm NNW 3 5 - - - - - - - 28.2 1008.5 0.0
26/02:30pm N 10 18 - - - - - - - 28.6 1008.6 0.0
26/02:00pm NNE 17 20 - - - - - - - 28.7 1008.7 0.0
26/01:30pm NNE 11 16 - - - - - - - 28.5 1009.0 0.0
26/01:00pm N 7 13 - - - - - - - 29.0 1009.0 0.0
26/12:30pm NNW 3 5 - - - - - - - 29.7 1009.4 0.0
26/12:00pm NNE 4 6 - - - - - - - 28.7 1009.8 0.0
26/11:30am N 3 4 - - - - - - - 28.7 1010.5 0.0
26/11:00am N 5 8 - - - - - - - 29.0 1010.8 0.0
26/10:30am NNW 6 10 - - - - - - - 27.8 1011.3 0.0
26/10:00am NNW 9 13 - - - - - - - 27.8 1011.8 0.0
26/09:30am NNW 9 13 - - - - - - - 26.2 1011.6 0.0
26/09:00am NNW 11 14 - - - - - - Recent precip. 25.2 1011.6 4.6
26/08:30am NNW 9 14 - - - - - - - 24.7 1011.5 4.4
26/08:00am NW 10 16 - - - - - - - 23.9 1011.7 4.4
26/07:30am NNW 11 15 - - - - - - - 22.9 1011.7 4.4
26/07:00am NNW 12 17 - - - - - - - 21.7 1011.4 4.4
26/06:30am NW 11 16 - - - - - - - 21.7 1011.1 4.4
26/06:00am NW 13 17 - - - - - - - 21.5 1010.7 4.4
26/05:30am NW 9 11 - - - - - - - 21.7 1010.5 4.4
26/05:00am NW 11 13 - - - - - - - 21.7 1010.2 4.4
26/04:30am NW 12 14 - - - - - - - 21.8 1009.9 4.4
26/04:00am NNW 9 15 - - - - - - - 22.0 1009.8 4.4
26/03:30am N 5 9 - - - - - - - 22.4 1009.7 4.4
26/03:00am N 4 7 - - - - - - - 22.2 1009.4 4.4
26/02:30am N 4 7 - - - - - - - 22.2 1009.2 4.4
26/02:00am NNW 3 5 - - - - - - - 22.1 1009.1 4.4
26/01:30am NNW 11 16 - - - - - - - 22.2 1009.5 4.4
26/01:00am NNW 4 8 - - - - - - - 22.2 1009.8 4.4
26/12:30am N 4 7 - - - - - - - 22.3 1010.4 4.2
26/12:00am NNW 2 4 - - - - - - Recent precip. 22.3 1010.8 4.2
 
Date/Time
EST
Wind Sea
Height
m
Swell Vis
km
Cloud Weather Temp
°C
Press
MSL
hPa
Rain since
9am
mm
Dir  Spd
kts
Gust
kts
Height
m
Period
s
Dir
25/11:30pm NNW 4 8 - - - - - - - 22.4 1011.3 4.2
25/11:00pm NNW 6 12 - - - - - - - 22.5 1011.3 4.0
25/10:30pm N 5 9 - - - - - - - 22.5 1011.5 3.6
25/10:00pm N 4 6 - - - - - - - 22.5 1011.3 3.6
25/09:30pm N 2 4 - - - - - - - 22.3 1010.9 3.6
25/09:00pm N 3 4 - - - - - - - 22.2 1011.4 3.6
25/08:30pm N 2 5 - - - - - - - 22.2 1011.4 3.6
25/08:00pm N 3 4 - - - - - - - 22.2 1011.1 3.6
25/07:30pm N 1 3 - - - - - - - 22.1 1011.1 3.6
25/07:00pm ENE 2 4 - - - - - - - 22.0 1010.9 3.6
25/06:30pm ENE 3 5 - - - - - - - 21.9 1010.8 3.6
25/06:00pm CALM 0 1 - - - - - - - 21.4 1010.6 3.6
25/05:30pm ENE 1 4 - - - - - - - 21.2 1010.0 3.6
25/05:00pm NE 2 9 - - - - - - - 21.1 1009.8 3.6
25/04:30pm ENE 3 6 - - - - - - - 21.0 1010.1 3.6
25/04:00pm NNW 8 11 - - - - - - - 21.4 1010.4 3.6
25/03:30pm NNW 8 11 - - - - - - - 20.7 1010.5 2.4
25/03:00pm WNW 9 12 - - - - - - Rain 20.3 1010.2 1.6
25/02:35pm NW 16 25 - - - - - - - 21.3 1010.2 0.4
25/02:30pm NNW 16 22 - - - - - - - 23.5 1010.0 0.2
25/02:10pm N 12 22 - - - - - - - 24.6 1009.8 0.0
25/02:00pm E 5 7 - - - - - - - 24.8 1009.7 0.0
25/01:30pm N 4 6 - - - - - - - 25.3 1009.5 0.0
25/01:00pm N 5 7 - - - - - - - 26.2 1009.6 0.0
25/12:30pm W 4 7 - - - - - - - 26.7 1009.9 0.0
25/12:00pm N 12 21 - - - - - - - 28.2 1010.4 0.0
25/11:47am NNE 9 17 - - - - - - - 27.8 1010.5 0.0
25/11:30am N 4 6 - - - - - - - 29.1 1010.8 0.0
25/11:00am NW 3 6 - - - - - - - 28.3 1010.9 0.0
25/10:30am NNE 4 6 - - - - - - - 27.7 1011.3 0.0
25/10:00am N 4 7 - - - - - - - 26.9 1011.7 0.0
25/09:30am NNW 4 7 - - - - - - - 26.9 1012.0 0.0
25/09:00am W 3 5 - - - - - - - 26.3 1012.2 0.8
25/08:30am WNW 2 4 - - - - - - - 24.3 1012.2 0.8
25/08:00am WSW 3 5 - - - - - - - 25.1 1012.1 0.8
25/07:30am NNE 3 5 - - - - - - - 24.2 1011.8 0.8
25/07:00am NE 3 5 - - - - - - - 23.0 1011.6 0.8
25/06:30am N 5 8 - - - - - - - 22.6 1011.3 0.8
25/06:00am N 7 15 - - - - - - - 22.5 1011.0 0.8
25/05:30am N 6 11 - - - - - - - 22.3 1010.9 0.8
25/05:00am N 10 16 - - - - - - - 22.2 1010.8 0.8
25/04:30am NNW 10 18 - - - - - - - 22.1 1010.6 0.8
25/04:00am N 12 19 - - - - - - - 22.2 1010.4 0.6
25/03:30am N 8 17 - - - - - - - 22.1 1010.4 0.6
25/03:00am N 9 15 - - - - - - - 22.0 1010.1 0.6
25/02:30am N 13 18 - - - - - - - 22.0 1010.1 0.6
25/02:00am NNW 15 20 - - - - - - - 21.9 1010.2 0.6
25/01:30am NNW 13 19 - - - - - - - 22.0 1010.7 0.6
25/01:00am N 8 15 - - - - - - - 22.0 1010.8 0.6
25/12:30am NNE 5 10 - - - - - - - 21.9 1010.6 0.6
25/12:00am N 5 9 - - - - - - - 22.0 1010.7 0.6
 
Date/Time
EST
Wind Sea
Height
m
Swell Vis
km
Cloud Weather Temp
°C
Press
MSL
hPa
Rain since
9am
mm
Dir  Spd
kts
Gust
kts
Height
m
Period
s
Dir
24/11:30pm N 11 20 - - - - - - - 22.1 1011.0 0.6
24/11:00pm N 7 13 - - - - - - - 22.0 1011.1 0.6
24/10:30pm NNW 4 8 - - - - - - - 22.1 1011.3 0.6
24/10:00pm N 5 8 - - - - - - - 22.1 1011.4 0.6
24/09:30pm N 4 6 - - - - - - - 21.9 1011.5 0.6
24/09:00pm N 4 6 - - - - - - - 22.0 1011.4 0.6
24/08:30pm N 3 5 - - - - - - - 22.2 1011.7 0.6
24/08:00pm NNW 3 6 - - - - - - - 22.1 1011.6 0.6
24/07:30pm NW 5 8 - - - - - - - 21.8 1011.6 0.6
24/07:00pm NW 5 7 - - - - - - - 21.6 1011.2 0.6
24/06:30pm NW 5 7 - - - - - - - 21.2 1010.8 0.6
24/06:00pm NW 7 8 - - - - - - - 20.7 1011.1 0.6
24/05:30pm NW 9 11 - - - - - - - 20.6 1011.4 0.6
24/05:00pm NNW 10 20 - - - - - - - 21.0 1011.4 0.6
24/04:30pm NNW 15 20 - - - - - - - 23.0 1011.4 0.0
24/04:00pm N 8 16 - - - - - - - 23.8 1010.9 0.0
24/03:30pm E 3 5 - - - - - - - 24.3 1010.1 0.0
24/03:00pm SSE 4 7 - - - - - - - 24.5 1009.8 0.0
24/02:30pm N 3 6 - - - - - - - 24.6 1010.0 0.0
24/02:00pm NNW 4 6 - - - - - - - 24.8 1010.7 0.0
24/01:30pm E 5 8 - - - - - - - 24.9 1011.0 0.0
24/01:00pm NNW 6 12 - - - - - - - 24.6 1011.3 0.0
24/12:30pm N 9 16 - - - - - - - 24.5 1011.7 0.0
24/12:00pm N 11 19 - - - - - - - 24.0 1012.1 0.0
24/11:30am N 11 19 - - - - - - - 23.9 1012.5 0.0
24/11:10am N 15 25 - - - - - - - 24.0 1012.8 0.0
24/11:00am N 11 21 - - - - - - - 24.4 1012.9 0.0
24/10:30am N 10 18 - - - - - - - 24.0 1013.3 0.0
24/10:00am N 10 17 - - - - - - - 23.7 1013.6 0.0
24/09:30am N 9 18 - - - - - - - 24.7 1013.8 0.0
24/09:00am N 5 9 - - - - - - - 24.4 1014.1 0.0
24/08:30am NNE 5 12 - - - - - - - 24.5 1014.1 0.0
24/08:00am NNW 5 8 - - - - - - - 23.7 1014.1 0.0

Other formats

Comma delimited format used in spreadsheet applications
http://www.bom.gov.au/fwo/IDQ60701/IDQ60701.94584.axf

JavaScript Object Notation format (JSON) in row-major order
http://www.bom.gov.au/fwo/IDQ60701/IDQ60701.94584.json

Data quality

Most of these data are generated automatically and are frequently updated. Quality checks on data are not normally performed. It is possible for incorrect values to appear. Refer to information at About Latest Weather Observations and please check the disclaimer before using these data.